sensor_id;sensor_type;location;lat;lon;timestamp;temperature;humidity
30473;DHT22;17263;48.160;11.452;2023-07-08T00:00:52;18.10;97.60
30473;DHT22;17263;48.160;11.452;2023-07-08T00:03:20;18.10;98.20
30473;DHT22;17263;48.160;11.452;2023-07-08T00:05:47;18.00;98.40
30473;DHT22;17263;48.160;11.452;2023-07-08T00:08:15;18.00;99.20
30473;DHT22;17263;48.160;11.452;2023-07-08T00:10:42;18.00;99.30
30473;DHT22;17263;48.160;11.452;2023-07-08T00:13:09;17.90;99.40
30473;DHT22;17263;48.160;11.452;2023-07-08T00:15:36;17.90;99.70
30473;DHT22;17263;48.160;11.452;2023-07-08T00:18:14;17.90;99.90
30473;DHT22;17263;48.160;11.452;2023-07-08T00:20:46;17.90;99.90
30473;DHT22;17263;48.160;11.452;2023-07-08T00:23:13;17.80;99.90
30473;DHT22;17263;48.160;11.452;2023-07-08T00:25:39;17.80;99.90
30473;DHT22;17263;48.160;11.452;2023-07-08T00:28:19;17.80;99.90
30473;DHT22;17263;48.160;11.452;2023-07-08T00:30:46;17.80;99.90
30473;DHT22;17263;48.160;11.452;2023-07-08T00:33:12;17.80;99.90
30473;DHT22;17263;48.160;11.452;2023-07-08T00:35:41;17.80;99.90
30473;DHT22;17263;48.160;11.452;2023-07-08T00:40:38;17.80;99.90
30473;DHT22;17263;48.160;11.452;2023-07-08T00:43:14;17.90;99.90
30473;DHT22;17263;48.160;11.452;2023-07-08T00:45:45;17.90;99.90
30473;DHT22;17263;48.160;11.452;2023-07-08T00:48:34;17.90;99.90
30473;DHT22;17263;48.160;11.452;2023-07-08T00:51:01;18.00;99.90
30473;DHT22;17263;48.160;11.452;2023-07-08T00:53:35;17.90;99.90
30473;DHT22;17263;48.160;11.452;2023-07-08T00:56:26;17.90;99.90
30473;DHT22;17263;48.160;11.452;2023-07-08T00:58:58;17.90;99.90
30473;DHT22;17263;48.160;11.452;2023-07-08T01:01:26;17.90;99.90
30473;DHT22;17263;48.160;11.452;2023-07-08T01:04:06;17.90;99.90
30473;DHT22;17263;48.160;11.452;2023-07-08T01:06:39;17.80;99.90
30473;DHT22;17263;48.160;11.452;2023-07-08T01:09:08;17.80;99.90
30473;DHT22;17263;48.160;11.452;2023-07-08T01:11:37;17.80;99.90
30473;DHT22;17263;48.160;11.452;2023-07-08T01:14:06;17.80;99.90
30473;DHT22;17263;48.160;11.452;2023-07-08T01:16:39;17.70;99.90
30473;DHT22;17263;48.160;11.452;2023-07-08T01:19:09;17.70;99.90
30473;DHT22;17263;48.160;11.452;2023-07-08T01:22:08;17.70;99.90
30473;DHT22;17263;48.160;11.452;2023-07-08T01:24:37;17.70;99.90
30473;DHT22;17263;48.160;11.452;2023-07-08T01:27:07;17.70;99.90
30473;DHT22;17263;48.160;11.452;2023-07-08T01:29:34;17.60;99.90
30473;DHT22;17263;48.160;11.452;2023-07-08T01:32:00;17.60;99.90
30473;DHT22;17263;48.160;11.452;2023-07-08T01:34:30;17.60;99.90
30473;DHT22;17263;48.160;11.452;2023-07-08T01:36:59;17.50;99.90
30473;DHT22;17263;48.160;11.452;2023-07-08T01:39:31;17.50;99.90
30473;DHT22;17263;48.160;11.452;2023-07-08T01:41:58;17.50;99.90
30473;DHT22;17263;48.160;11.452;2023-07-08T01:44:36;17.50;99.90
30473;DHT22;17263;48.160;11.452;2023-07-08T01:47:03;17.50;99.90
30473;DHT22;17263;48.160;11.452;2023-07-08T01:49:31;17.60;99.90
30473;DHT22;17263;48.160;11.452;2023-07-08T01:51:58;17.50;99.90
30473;DHT22;17263;48.160;11.452;2023-07-08T01:54:25;17.50;99.90
30473;DHT22;17263;48.160;11.452;2023-07-08T01:56:55;17.60;99.90
30473;DHT22;17263;48.160;11.452;2023-07-08T01:59:22;17.60;99.90
30473;DHT22;17263;48.160;11.452;2023-07-08T02:01:49;17.50;99.90
30473;DHT22;17263;48.160;11.452;2023-07-08T02:04:20;17.50;99.90
30473;DHT22;17263;48.160;11.452;2023-07-08T02:06:58;17.40;99.90
30473;DHT22;17263;48.160;11.452;2023-07-08T02:09:25;17.30;99.90
30473;DHT22;17263;48.160;11.452;2023-07-08T02:11:53;17.30;99.90
30473;DHT22;17263;48.160;11.452;2023-07-08T02:14:19;17.30;99.90
30473;DHT22;17263;48.160;11.452;2023-07-08T02:16:45;17.30;99.90
30473;DHT22;17263;48.160;11.452;2023-07-08T02:19:12;17.20;99.90
30473;DHT22;17263;48.160;11.452;2023-07-08T02:21:38;17.20;99.90
30473;DHT22;17263;48.160;11.452;2023-07-08T02:24:05;17.20;99.90
30473;DHT22;17263;48.160;11.452;2023-07-08T02:26:31;17.10;99.90
30473;DHT22;17263;48.160;11.452;2023-07-08T02:28:58;17.10;99.90
30473;DHT22;17263;48.160;11.452;2023-07-08T02:31:24;17.10;99.90
30473;DHT22;17263;48.160;11.452;2023-07-08T02:33:51;17.10;99.90
30473;DHT22;17263;48.160;11.452;2023-07-08T02:36:18;17.10;99.90
30473;DHT22;17263;48.160;11.452;2023-07-08T02:38:44;17.00;99.90
30473;DHT22;17263;48.160;11.452;2023-07-08T02:41:10;17.00;99.90
30473;DHT22;17263;48.160;11.452;2023-07-08T02:43:40;17.00;99.90
30473;DHT22;17263;48.160;11.452;2023-07-08T02:46:06;17.00;99.90
30473;DHT22;17263;48.160;11.452;2023-07-08T02:48:32;17.00;99.90
30473;DHT22;17263;48.160;11.452;2023-07-08T02:51:03;17.00;99.90
30473;DHT22;17263;48.160;11.452;2023-07-08T02:53:29;17.00;99.90
30473;DHT22;17263;48.160;11.452;2023-07-08T02:55:56;17.00;99.90
30473;DHT22;17263;48.160;11.452;2023-07-08T02:58:22;17.00;99.90
30473;DHT22;17263;48.160;11.452;2023-07-08T03:00:55;17.00;99.90
30473;DHT22;17263;48.160;11.452;2023-07-08T03:03:22;17.00;99.90
30473;DHT22;17263;48.160;11.452;2023-07-08T03:05:59;17.00;99.90
30473;DHT22;17263;48.160;11.452;2023-07-08T03:08:26;17.00;99.90
30473;DHT22;17263;48.160;11.452;2023-07-08T03:11:11;17.00;99.90
30473;DHT22;17263;48.160;11.452;2023-07-08T03:13:37;17.00;99.90
30473;DHT22;17263;48.160;11.452;2023-07-08T03:16:04;16.90;99.90
30473;DHT22;17263;48.160;11.452;2023-07-08T03:18:39;17.00;99.90
30473;DHT22;17263;48.160;11.452;2023-07-08T03:21:13;16.90;99.90
30473;DHT22;17263;48.160;11.452;2023-07-08T03:23:39;16.90;99.90
30473;DHT22;17263;48.160;11.452;2023-07-08T03:26:05;16.90;99.90
30473;DHT22;17263;48.160;11.452;2023-07-08T03:28:31;17.00;99.90
30473;DHT22;17263;48.160;11.452;2023-07-08T03:30:57;17.00;99.90
30473;DHT22;17263;48.160;11.452;2023-07-08T03:33:23;17.00;99.90
30473;DHT22;17263;48.160;11.452;2023-07-08T03:35:50;17.00;99.90
30473;DHT22;17263;48.160;11.452;2023-07-08T03:38:16;17.00;99.90
30473;DHT22;17263;48.160;11.452;2023-07-08T03:40:42;17.00;99.90
30473;DHT22;17263;48.160;11.452;2023-07-08T03:43:08;17.00;99.90
30473;DHT22;17263;48.160;11.452;2023-07-08T03:45:34;17.00;99.90
30473;DHT22;17263;48.160;11.452;2023-07-08T03:48:00;17.00;99.90
30473;DHT22;17263;48.160;11.452;2023-07-08T03:50:27;17.00;99.90
30473;DHT22;17263;48.160;11.452;2023-07-08T03:52:54;17.10;99.90
30473;DHT22;17263;48.160;11.452;2023-07-08T03:55:21;17.10;99.90
30473;DHT22;17263;48.160;11.452;2023-07-08T03:57:47;17.10;99.90
30473;DHT22;17263;48.160;11.452;2023-07-08T04:00:14;17.20;99.90
30473;DHT22;17263;48.160;11.452;2023-07-08T04:02:42;17.20;99.90
30473;DHT22;17263;48.160;11.452;2023-07-08T04:05:13;17.30;99.90
30473;DHT22;17263;48.160;11.452;2023-07-08T04:07:40;17.30;99.90
30473;DHT22;17263;48.160;11.452;2023-07-08T04:10:08;17.30;99.90
30473;DHT22;17263;48.160;11.452;2023-07-08T04:12:34;17.30;99.90
30473;DHT22;17263;48.160;11.452;2023-07-08T04:15:00;17.30;99.90
30473;DHT22;17263;48.160;11.452;2023-07-08T04:17:26;17.20;99.90
30473;DHT22;17263;48.160;11.452;2023-07-08T04:19:52;17.30;99.90
30473;DHT22;17263;48.160;11.452;2023-07-08T04:22:18;17.30;99.90
30473;DHT22;17263;48.160;11.452;2023-07-08T04:24:44;17.30;99.90
30473;DHT22;17263;48.160;11.452;2023-07-08T04:27:14;17.40;99.90
30473;DHT22;17263;48.160;11.452;2023-07-08T04:29:42;17.40;99.90
30473;DHT22;17263;48.160;11.452;2023-07-08T04:32:08;17.50;99.90
30473;DHT22;17263;48.160;11.452;2023-07-08T04:34:34;17.50;99.90
30473;DHT22;17263;48.160;11.452;2023-07-08T04:37:00;17.60;99.90
30473;DHT22;17263;48.160;11.452;2023-07-08T04:39:27;17.60;99.90
30473;DHT22;17263;48.160;11.452;2023-07-08T04:41:53;17.70;99.90
30473;DHT22;17263;48.160;11.452;2023-07-08T04:44:19;17.70;99.90
30473;DHT22;17263;48.160;11.452;2023-07-08T04:46:51;17.80;99.90
30473;DHT22;17263;48.160;11.452;2023-07-08T04:49:19;17.90;99.90
30473;DHT22;17263;48.160;11.452;2023-07-08T04:51:45;17.90;99.90
30473;DHT22;17263;48.160;11.452;2023-07-08T04:54:12;18.00;99.90
30473;DHT22;17263;48.160;11.452;2023-07-08T04:56:43;18.10;99.90
30473;DHT22;17263;48.160;11.452;2023-07-08T04:59:12;18.10;99.90
30473;DHT22;17263;48.160;11.452;2023-07-08T05:01:39;18.20;99.90
30473;DHT22;17263;48.160;11.452;2023-07-08T05:04:06;18.20;99.90
30473;DHT22;17263;48.160;11.452;2023-07-08T05:06:33;18.30;99.90
30473;DHT22;17263;48.160;11.452;2023-07-08T05:09:01;18.30;99.90
30473;DHT22;17263;48.160;11.452;2023-07-08T05:11:28;18.40;99.90
30473;DHT22;17263;48.160;11.452;2023-07-08T05:13:54;18.40;99.90
30473;DHT22;17263;48.160;11.452;2023-07-08T05:16:20;18.50;99.90
30473;DHT22;17263;48.160;11.452;2023-07-08T05:18:46;18.50;99.90
30473;DHT22;17263;48.160;11.452;2023-07-08T05:21:13;18.50;99.90
30473;DHT22;17263;48.160;11.452;2023-07-08T05:23:39;18.60;99.90
30473;DHT22;17263;48.160;11.452;2023-07-08T05:26:06;18.60;99.90
30473;DHT22;17263;48.160;11.452;2023-07-08T05:28:35;18.70;99.90
30473;DHT22;17263;48.160;11.452;2023-07-08T05:31:01;18.80;99.90
30473;DHT22;17263;48.160;11.452;2023-07-08T05:33:28;19.00;99.90
30473;DHT22;17263;48.160;11.452;2023-07-08T05:35:55;19.20;99.90
30473;DHT22;17263;48.160;11.452;2023-07-08T05:38:23;19.30;99.90
30473;DHT22;17263;48.160;11.452;2023-07-08T05:40:50;19.30;99.90
30473;DHT22;17263;48.160;11.452;2023-07-08T05:43:17;19.40;99.90
30473;DHT22;17263;48.160;11.452;2023-07-08T05:45:44;19.60;99.90
30473;DHT22;17263;48.160;11.452;2023-07-08T05:48:10;20.00;99.90
30473;DHT22;17263;48.160;11.452;2023-07-08T05:50:36;20.60;99.90
30473;DHT22;17263;48.160;11.452;2023-07-08T05:53:02;21.30;99.90
30473;DHT22;17263;48.160;11.452;2023-07-08T05:55:28;22.10;99.90
30473;DHT22;17263;48.160;11.452;2023-07-08T05:57:54;22.70;99.90
30473;DHT22;17263;48.160;11.452;2023-07-08T06:00:20;23.20;99.90
30473;DHT22;17263;48.160;11.452;2023-07-08T06:02:46;23.60;99.90
30473;DHT22;17263;48.160;11.452;2023-07-08T06:05:13;23.70;99.90
30473;DHT22;17263;48.160;11.452;2023-07-08T06:07:39;23.90;99.90
30473;DHT22;17263;48.160;11.452;2023-07-08T06:10:05;23.50;99.90
30473;DHT22;17263;48.160;11.452;2023-07-08T06:12:31;23.30;99.90
30473;DHT22;17263;48.160;11.452;2023-07-08T06:14:57;23.30;99.90
30473;DHT22;17263;48.160;11.452;2023-07-08T06:17:23;23.20;99.90
30473;DHT22;17263;48.160;11.452;2023-07-08T06:19:49;23.20;99.90
30473;DHT22;17263;48.160;11.452;2023-07-08T06:22:15;23.30;99.90
30473;DHT22;17263;48.160;11.452;2023-07-08T06:24:41;23.30;99.90
30473;DHT22;17263;48.160;11.452;2023-07-08T06:27:07;23.50;99.90
30473;DHT22;17263;48.160;11.452;2023-07-08T06:29:34;23.80;99.70
30473;DHT22;17263;48.160;11.452;2023-07-08T06:32:01;24.20;99.00
30473;DHT22;17263;48.160;11.452;2023-07-08T06:34:27;24.50;98.40
30473;DHT22;17263;48.160;11.452;2023-07-08T06:36:53;24.80;98.20
30473;DHT22;17263;48.160;11.452;2023-07-08T06:39:19;25.00;97.90
30473;DHT22;17263;48.160;11.452;2023-07-08T06:41:45;25.30;98.10
30473;DHT22;17263;48.160;11.452;2023-07-08T06:44:11;25.50;97.10
30473;DHT22;17263;48.160;11.452;2023-07-08T06:46:37;25.50;95.80
30473;DHT22;17263;48.160;11.452;2023-07-08T06:49:03;25.50;96.10
30473;DHT22;17263;48.160;11.452;2023-07-08T06:51:29;25.50;95.60
30473;DHT22;17263;48.160;11.452;2023-07-08T06:53:55;25.30;95.20
30473;DHT22;17263;48.160;11.452;2023-07-08T06:56:21;25.00;95.90
30473;DHT22;17263;48.160;11.452;2023-07-08T06:58:47;24.70;96.00
30473;DHT22;17263;48.160;11.452;2023-07-08T07:01:13;24.30;97.90
30473;DHT22;17263;48.160;11.452;2023-07-08T07:03:40;24.20;97.90
30473;DHT22;17263;48.160;11.452;2023-07-08T07:06:06;24.30;98.70
30473;DHT22;17263;48.160;11.452;2023-07-08T07:08:32;24.60;98.50
30473;DHT22;17263;48.160;11.452;2023-07-08T07:10:58;24.70;97.40
30473;DHT22;17263;48.160;11.452;2023-07-08T07:13:24;24.60;97.40
30473;DHT22;17263;48.160;11.452;2023-07-08T07:15:50;24.50;97.30
30473;DHT22;17263;48.160;11.452;2023-07-08T07:18:16;24.70;97.70
30473;DHT22;17263;48.160;11.452;2023-07-08T07:20:50;25.00;97.60
30473;DHT22;17263;48.160;11.452;2023-07-08T07:23:17;25.30;96.30
30473;DHT22;17263;48.160;11.452;2023-07-08T07:25:44;25.40;95.70
30473;DHT22;17263;48.160;11.452;2023-07-08T07:28:14;25.50;94.60
30473;DHT22;17263;48.160;11.452;2023-07-08T07:30:43;25.60;94.20
30473;DHT22;17263;48.160;11.452;2023-07-08T07:33:10;25.50;94.10
30473;DHT22;17263;48.160;11.452;2023-07-08T07:35:44;25.40;94.30
30473;DHT22;17263;48.160;11.452;2023-07-08T07:38:13;25.20;94.80
30473;DHT22;17263;48.160;11.452;2023-07-08T07:40:40;25.10;94.50
30473;DHT22;17263;48.160;11.452;2023-07-08T07:43:06;24.90;95.40
30473;DHT22;17263;48.160;11.452;2023-07-08T07:45:32;24.90;96.10
30473;DHT22;17263;48.160;11.452;2023-07-08T07:47:58;24.90;96.00
30473;DHT22;17263;48.160;11.452;2023-07-08T07:50:24;25.00;96.40
30473;DHT22;17263;48.160;11.452;2023-07-08T07:52:50;25.10;95.90
30473;DHT22;17263;48.160;11.452;2023-07-08T07:55:16;25.20;95.40
30473;DHT22;17263;48.160;11.452;2023-07-08T07:57:42;25.40;96.10
30473;DHT22;17263;48.160;11.452;2023-07-08T08:00:11;25.70;95.10
30473;DHT22;17263;48.160;11.452;2023-07-08T08:02:40;25.80;94.40
30473;DHT22;17263;48.160;11.452;2023-07-08T08:05:06;26.00;94.40
30473;DHT22;17263;48.160;11.452;2023-07-08T08:07:33;26.10;94.40
30473;DHT22;17263;48.160;11.452;2023-07-08T08:09:59;26.10;94.10
30473;DHT22;17263;48.160;11.452;2023-07-08T08:12:25;26.10;94.20
30473;DHT22;17263;48.160;11.452;2023-07-08T08:14:51;26.00;94.70
30473;DHT22;17263;48.160;11.452;2023-07-08T08:17:17;26.00;94.40
30473;DHT22;17263;48.160;11.452;2023-07-08T08:19:43;26.20;94.10
30473;DHT22;17263;48.160;11.452;2023-07-08T08:22:09;26.30;93.90
30473;DHT22;17263;48.160;11.452;2023-07-08T08:24:35;26.20;92.90
30473;DHT22;17263;48.160;11.452;2023-07-08T08:27:01;26.10;93.40
30473;DHT22;17263;48.160;11.452;2023-07-08T08:29:27;26.30;93.90
30473;DHT22;17263;48.160;11.452;2023-07-08T08:31:53;26.40;92.90
30473;DHT22;17263;48.160;11.452;2023-07-08T08:34:22;26.60;92.40
30473;DHT22;17263;48.160;11.452;2023-07-08T08:36:48;26.60;91.30
30473;DHT22;17263;48.160;11.452;2023-07-08T08:39:14;26.30;91.20
30473;DHT22;17263;48.160;11.452;2023-07-08T08:41:42;26.40;91.40
30473;DHT22;17263;48.160;11.452;2023-07-08T08:44:24;26.40;91.70
30473;DHT22;17263;48.160;11.452;2023-07-08T08:47:04;26.60;91.20
30473;DHT22;17263;48.160;11.452;2023-07-08T08:52:43;26.70;90.10
30473;DHT22;17263;48.160;11.452;2023-07-08T08:55:14;26.50;90.60
30473;DHT22;17263;48.160;11.452;2023-07-08T09:00:54;26.10;91.30
30473;DHT22;17263;48.160;11.452;2023-07-08T09:08:50;26.50;90.30
30473;DHT22;17263;48.160;11.452;2023-07-08T09:14:17;26.50;90.50
30473;DHT22;17263;48.160;11.452;2023-07-08T09:19:43;26.70;91.10
30473;DHT22;17263;48.160;11.452;2023-07-08T09:22:17;27.00;90.90
30473;DHT22;17263;48.160;11.452;2023-07-08T09:24:55;27.10;88.90
30473;DHT22;17263;48.160;11.452;2023-07-08T09:27:22;26.90;90.50
30473;DHT22;17263;48.160;11.452;2023-07-08T09:29:49;26.90;90.20
30473;DHT22;17263;48.160;11.452;2023-07-08T09:32:21;27.00;90.30
30473;DHT22;17263;48.160;11.452;2023-07-08T09:34:55;27.10;90.40
30473;DHT22;17263;48.160;11.452;2023-07-08T09:37:36;27.20;89.80
30473;DHT22;17263;48.160;11.452;2023-07-08T09:40:28;27.10;88.30
30473;DHT22;17263;48.160;11.452;2023-07-08T09:43:02;27.00;87.20
30473;DHT22;17263;48.160;11.452;2023-07-08T09:45:29;26.80;88.90
30473;DHT22;17263;48.160;11.452;2023-07-08T09:48:23;27.00;88.90
30473;DHT22;17263;48.160;11.452;2023-07-08T09:50:52;27.10;90.30
30473;DHT22;17263;48.160;11.452;2023-07-08T09:53:18;27.20;89.30
30473;DHT22;17263;48.160;11.452;2023-07-08T09:55:45;27.40;89.10
30473;DHT22;17263;48.160;11.452;2023-07-08T09:58:19;27.80;87.00
30473;DHT22;17263;48.160;11.452;2023-07-08T10:00:53;27.80;86.40
30473;DHT22;17263;48.160;11.452;2023-07-08T10:03:26;28.00;84.70
30473;DHT22;17263;48.160;11.452;2023-07-08T10:05:55;28.20;86.20
30473;DHT22;17263;48.160;11.452;2023-07-08T10:08:25;28.40;85.90
30473;DHT22;17263;48.160;11.452;2023-07-08T10:11:27;28.60;85.00
30473;DHT22;17263;48.160;11.452;2023-07-08T10:13:56;29.00;83.90
30473;DHT22;17263;48.160;11.452;2023-07-08T10:16:29;29.10;81.70
30473;DHT22;17263;48.160;11.452;2023-07-08T10:18:56;29.20;81.00
30473;DHT22;17263;48.160;11.452;2023-07-08T10:21:51;29.30;81.60
30473;DHT22;17263;48.160;11.452;2023-07-08T10:24:56;29.10;80.10
30473;DHT22;17263;48.160;11.452;2023-07-08T10:30:07;29.30;79.50
30473;DHT22;17263;48.160;11.452;2023-07-08T10:35:30;29.30;77.50
30473;DHT22;17263;48.160;11.452;2023-07-08T10:38:17;29.40;78.10
30473;DHT22;17263;48.160;11.452;2023-07-08T10:40:49;29.50;77.70
30473;DHT22;17263;48.160;11.452;2023-07-08T10:43:53;29.20;77.90
30473;DHT22;17263;48.160;11.452;2023-07-08T10:46:37;29.10;79.00
30473;DHT22;17263;48.160;11.452;2023-07-08T11:06:18;28.60;77.30
30473;DHT22;17263;48.160;11.452;2023-07-08T11:08:59;28.40;77.60
30473;DHT22;17263;48.160;11.452;2023-07-08T11:11:36;28.10;79.00
30473;DHT22;17263;48.160;11.452;2023-07-08T11:14:27;27.90;79.10
30473;DHT22;17263;48.160;11.452;2023-07-08T11:17:38;27.80;80.50
30473;DHT22;17263;48.160;11.452;2023-07-08T11:20:13;27.70;81.30
30473;DHT22;17263;48.160;11.452;2023-07-08T11:22:47;27.60;82.30
30473;DHT22;17263;48.160;11.452;2023-07-08T11:25:19;27.70;81.80
30473;DHT22;17263;48.160;11.452;2023-07-08T11:27:48;27.80;80.70
30473;DHT22;17263;48.160;11.452;2023-07-08T11:30:17;27.70;81.30
30473;DHT22;17263;48.160;11.452;2023-07-08T11:32:57;27.80;81.40
30473;DHT22;17263;48.160;11.452;2023-07-08T11:35:41;27.90;81.10
30473;DHT22;17263;48.160;11.452;2023-07-08T11:38:12;27.90;79.20
30473;DHT22;17263;48.160;11.452;2023-07-08T11:41:03;27.90;79.40
30473;DHT22;17263;48.160;11.452;2023-07-08T11:43:46;27.80;78.60
30473;DHT22;17263;48.160;11.452;2023-07-08T11:46:18;27.90;78.90
30473;DHT22;17263;48.160;11.452;2023-07-08T11:48:48;27.90;79.10
30473;DHT22;17263;48.160;11.452;2023-07-08T11:51:25;27.90;76.80
30473;DHT22;17263;48.160;11.452;2023-07-08T11:54:02;28.00;77.20
30473;DHT22;17263;48.160;11.452;2023-07-08T11:59:25;27.90;74.60
30473;DHT22;17263;48.160;11.452;2023-07-08T12:02:20;27.90;74.50
30473;DHT22;17263;48.160;11.452;2023-07-08T12:07:30;27.80;70.60
30473;DHT22;17263;48.160;11.452;2023-07-08T12:09:58;27.80;69.60
30473;DHT22;17263;48.160;11.452;2023-07-08T12:12:31;27.70;69.10
30473;DHT22;17263;48.160;11.452;2023-07-08T12:15:04;27.70;68.60
30473;DHT22;17263;48.160;11.452;2023-07-08T12:17:30;27.90;72.20
30473;DHT22;17263;48.160;11.452;2023-07-08T12:20:00;27.90;70.80
30473;DHT22;17263;48.160;11.452;2023-07-08T12:22:41;27.90;70.90
30473;DHT22;17263;48.160;11.452;2023-07-08T12:25:13;27.90;71.60
30473;DHT22;17263;48.160;11.452;2023-07-08T12:27:43;28.00;71.90
30473;DHT22;17263;48.160;11.452;2023-07-08T12:30:14;28.00;71.60
30473;DHT22;17263;48.160;11.452;2023-07-08T12:32:41;28.10;71.70
30473;DHT22;17263;48.160;11.452;2023-07-08T12:35:22;28.30;70.50
30473;DHT22;17263;48.160;11.452;2023-07-08T12:37:51;28.50;69.70
30473;DHT22;17263;48.160;11.452;2023-07-08T12:40:17;28.60;67.80
30473;DHT22;17263;48.160;11.452;2023-07-08T12:42:45;28.60;68.00
30473;DHT22;17263;48.160;11.452;2023-07-08T12:45:16;28.70;66.00
30473;DHT22;17263;48.160;11.452;2023-07-08T12:47:43;28.80;66.60
30473;DHT22;17263;48.160;11.452;2023-07-08T12:50:10;28.80;67.40
30473;DHT22;17263;48.160;11.452;2023-07-08T12:52:36;28.80;68.70
30473;DHT22;17263;48.160;11.452;2023-07-08T12:55:02;28.80;69.20
30473;DHT22;17263;48.160;11.452;2023-07-08T12:57:28;28.80;70.40
30473;DHT22;17263;48.160;11.452;2023-07-08T12:59:55;28.90;69.20
30473;DHT22;17263;48.160;11.452;2023-07-08T13:02:22;28.80;69.20
30473;DHT22;17263;48.160;11.452;2023-07-08T13:04:59;28.80;68.40
30473;DHT22;17263;48.160;11.452;2023-07-08T13:10:02;28.40;68.70
30473;DHT22;17263;48.160;11.452;2023-07-08T13:12:29;28.30;69.30
30473;DHT22;17263;48.160;11.452;2023-07-08T13:14:58;28.30;70.30
30473;DHT22;17263;48.160;11.452;2023-07-08T13:17:24;28.20;71.60
30473;DHT22;17263;48.160;11.452;2023-07-08T13:19:51;28.20;73.10
30473;DHT22;17263;48.160;11.452;2023-07-08T13:22:19;28.20;73.60
30473;DHT22;17263;48.160;11.452;2023-07-08T13:24:46;28.20;73.40
30473;DHT22;17263;48.160;11.452;2023-07-08T13:27:24;28.30;71.80
30473;DHT22;17263;48.160;11.452;2023-07-08T13:29:52;28.20;73.20
30473;DHT22;17263;48.160;11.452;2023-07-08T13:32:18;28.20;72.80
30473;DHT22;17263;48.160;11.452;2023-07-08T13:34:44;28.20;71.60
30473;DHT22;17263;48.160;11.452;2023-07-08T13:37:12;28.10;71.00
30473;DHT22;17263;48.160;11.452;2023-07-08T13:39:42;28.10;69.80
30473;DHT22;17263;48.160;11.452;2023-07-08T13:42:09;28.10;69.70
30473;DHT22;17263;48.160;11.452;2023-07-08T13:44:42;27.90;72.60
30473;DHT22;17263;48.160;11.452;2023-07-08T13:47:39;27.80;73.00
30473;DHT22;17263;48.160;11.452;2023-07-08T13:50:16;27.60;74.50
30473;DHT22;17263;48.160;11.452;2023-07-08T13:52:44;27.70;73.70
30473;DHT22;17263;48.160;11.452;2023-07-08T13:55:17;27.60;73.30
30473;DHT22;17263;48.160;11.452;2023-07-08T13:57:44;27.60;74.60
30473;DHT22;17263;48.160;11.452;2023-07-08T14:00:11;27.50;75.00
30473;DHT22;17263;48.160;11.452;2023-07-08T14:02:39;27.40;76.10
30473;DHT22;17263;48.160;11.452;2023-07-08T14:05:10;27.30;75.30
30473;DHT22;17263;48.160;11.452;2023-07-08T14:07:37;27.30;76.20
30473;DHT22;17263;48.160;11.452;2023-07-08T14:10:10;27.40;74.60
30473;DHT22;17263;48.160;11.452;2023-07-08T14:12:36;27.50;74.40
30473;DHT22;17263;48.160;11.452;2023-07-08T14:15:03;27.60;72.10
30473;DHT22;17263;48.160;11.452;2023-07-08T14:17:29;27.60;73.50
30473;DHT22;17263;48.160;11.452;2023-07-08T14:19:55;27.70;72.40
30473;DHT22;17263;48.160;11.452;2023-07-08T14:22:25;27.60;72.20
30473;DHT22;17263;48.160;11.452;2023-07-08T14:24:52;27.60;71.40
30473;DHT22;17263;48.160;11.452;2023-07-08T14:27:19;27.60;72.30
30473;DHT22;17263;48.160;11.452;2023-07-08T14:29:50;27.50;71.10
30473;DHT22;17263;48.160;11.452;2023-07-08T14:32:21;27.60;70.40
30473;DHT22;17263;48.160;11.452;2023-07-08T14:34:51;27.60;68.50
30473;DHT22;17263;48.160;11.452;2023-07-08T14:37:19;27.70;69.60
30473;DHT22;17263;48.160;11.452;2023-07-08T14:39:45;27.80;69.60
30473;DHT22;17263;48.160;11.452;2023-07-08T14:42:13;27.90;68.50
30473;DHT22;17263;48.160;11.452;2023-07-08T14:44:41;28.00;69.70
30473;DHT22;17263;48.160;11.452;2023-07-08T14:47:12;28.10;67.30
30473;DHT22;17263;48.160;11.452;2023-07-08T14:49:40;28.30;64.70
30473;DHT22;17263;48.160;11.452;2023-07-08T14:52:07;28.50;65.10
30473;DHT22;17263;48.160;11.452;2023-07-08T14:54:33;28.60;67.20
30473;DHT22;17263;48.160;11.452;2023-07-08T14:56:59;28.60;66.10
30473;DHT22;17263;48.160;11.452;2023-07-08T14:59:30;28.70;65.70
30473;DHT22;17263;48.160;11.452;2023-07-08T15:01:58;28.80;62.70
30473;DHT22;17263;48.160;11.452;2023-07-08T15:04:25;28.80;62.50
30473;DHT22;17263;48.160;11.452;2023-07-08T15:06:53;28.70;62.20
30473;DHT22;17263;48.160;11.452;2023-07-08T15:09:20;28.60;62.50
30473;DHT22;17263;48.160;11.452;2023-07-08T15:11:47;28.40;61.80
30473;DHT22;17263;48.160;11.452;2023-07-08T15:14:22;28.20;61.20
30473;DHT22;17263;48.160;11.452;2023-07-08T15:16:52;28.00;61.30
30473;DHT22;17263;48.160;11.452;2023-07-08T15:19:19;27.90;62.10
30473;DHT22;17263;48.160;11.452;2023-07-08T15:21:46;27.80;62.80
30473;DHT22;17263;48.160;11.452;2023-07-08T15:24:13;27.70;61.90
30473;DHT22;17263;48.160;11.452;2023-07-08T15:26:41;27.80;61.20
30473;DHT22;17263;48.160;11.452;2023-07-08T15:29:32;27.90;60.60
30473;DHT22;17263;48.160;11.452;2023-07-08T15:31:59;28.00;58.50
30473;DHT22;17263;48.160;11.452;2023-07-08T15:34:25;28.20;56.60
30473;DHT22;17263;48.160;11.452;2023-07-08T15:36:51;28.40;57.30
30473;DHT22;17263;48.160;11.452;2023-07-08T15:39:17;28.50;57.50
30473;DHT22;17263;48.160;11.452;2023-07-08T15:41:43;28.50;58.30
30473;DHT22;17263;48.160;11.452;2023-07-08T15:44:11;28.70;57.90
30473;DHT22;17263;48.160;11.452;2023-07-08T15:46:41;28.70;58.30
30473;DHT22;17263;48.160;11.452;2023-07-08T15:49:13;28.60;60.00
30473;DHT22;17263;48.160;11.452;2023-07-08T15:51:40;28.70;57.60
30473;DHT22;17263;48.160;11.452;2023-07-08T15:54:06;28.80;58.40
30473;DHT22;17263;48.160;11.452;2023-07-08T15:56:32;28.90;57.00
30473;DHT22;17263;48.160;11.452;2023-07-08T15:58:59;28.80;57.40
30473;DHT22;17263;48.160;11.452;2023-07-08T16:01:25;28.80;57.60
30473;DHT22;17263;48.160;11.452;2023-07-08T16:03:52;28.80;58.40
30473;DHT22;17263;48.160;11.452;2023-07-08T16:06:18;28.80;57.40
30473;DHT22;17263;48.160;11.452;2023-07-08T16:08:45;28.70;57.80
30473;DHT22;17263;48.160;11.452;2023-07-08T16:11:26;28.60;57.70
30473;DHT22;17263;48.160;11.452;2023-07-08T16:13:54;28.60;58.40
30473;DHT22;17263;48.160;11.452;2023-07-08T16:16:20;28.70;59.30
30473;DHT22;17263;48.160;11.452;2023-07-08T16:18:47;28.70;60.70
30473;DHT22;17263;48.160;11.452;2023-07-08T16:21:13;28.70;61.00